createdAt,value
2022-10-03T00:00:17.336Z,47.86
2022-10-03T00:02:51.834Z,47.89
2022-10-03T00:05:47.463Z,48.03
2022-10-03T00:08:52.435Z,47.96
2022-10-03T00:11:29.157Z,48.02
2022-10-03T00:14:29.847Z,48.15
2022-10-03T00:17:13.276Z,47.86
2022-10-03T00:20:06.104Z,47.97
2022-10-03T00:22:57.277Z,48.14
2022-10-03T00:25:49.290Z,47.98
2022-10-03T00:28:29.273Z,48.25
2022-10-03T00:31:11.313Z,48.06
2022-10-03T00:34:19.816Z,48.22
2022-10-03T00:36:53.611Z,48.44
2022-10-03T00:39:31.728Z,48.49
2022-10-03T00:42:35.794Z,48.55
2022-10-03T00:45:18.910Z,48.45
2022-10-03T00:48:04.394Z,48.49
2022-10-03T00:51:13.602Z,48.70
2022-10-03T00:54:09.646Z,48.45
2022-10-03T00:56:55.653Z,48.56
2022-10-03T00:59:52.611Z,48.32
2022-10-03T01:02:52.600Z,48.67
2022-10-03T01:05:57.715Z,48.71
2022-10-03T01:08:50.190Z,48.88
2022-10-03T01:11:32.881Z,48.59
2022-10-03T01:14:20.029Z,48.58
2022-10-03T01:16:56.710Z,48.88
2022-10-03T01:19:43.471Z,48.81
2022-10-03T01:22:39.822Z,48.77
2022-10-03T01:25:38.117Z,48.48
2022-10-03T01:29:05.812Z,48.40
2022-10-03T01:31:43.127Z,48.38
2022-10-03T01:34:24.495Z,48.38
2022-10-03T01:37:17.858Z,48.40
2022-10-03T01:39:48.427Z,48.85
2022-10-03T01:42:39.089Z,48.46
2022-10-03T01:45:15.763Z,48.39
2022-10-03T01:47:51.889Z,48.33
2022-10-03T01:50:38.946Z,48.64
2022-10-03T01:53:15.192Z,48.40
2022-10-03T01:56:08.884Z,48.56
2022-10-03T01:58:58.666Z,48.58
2022-10-03T02:01:29.305Z,48.38
2022-10-03T02:04:15.773Z,48.58
2022-10-03T02:07:02.701Z,48.46
2022-10-03T02:09:48.604Z,48.52
2022-10-03T02:12:23.060Z,48.46
2022-10-03T02:15:06.183Z,48.56
2022-10-03T02:17:36.809Z,48.53
2022-10-03T02:20:34.606Z,48.15
2022-10-03T02:23:02.658Z,48.61
2022-10-03T02:25:36.476Z,48.21
2022-10-03T02:28:10.376Z,48.44
2022-10-03T02:31:06.562Z,48.19
2022-10-03T02:34:16.304Z,48.26
2022-10-03T02:37:05.663Z,48.11
2022-10-03T02:40:07.274Z,47.98
2022-10-03T02:43:12.183Z,47.99
2022-10-03T02:45:59.399Z,48.01
2022-10-03T02:48:49.421Z,47.91
2022-10-03T02:51:50.813Z,48.02
2022-10-03T02:54:41.727Z,47.29
2022-10-03T02:57:35.101Z,47.35
2022-10-03T03:00:21.098Z,47.23
2022-10-03T03:02:59.017Z,46.96
2022-10-03T03:06:00.232Z,47.04
2022-10-03T03:08:46.087Z,47.16
2022-10-03T03:11:51.465Z,46.72
2022-10-03T03:14:25.057Z,46.66
2022-10-03T03:17:19.061Z,46.47
2022-10-03T03:20:11.394Z,46.25
2022-10-03T03:23:07.358Z,46.57
2022-10-03T03:26:10.457Z,46.20
2022-10-03T03:29:02.994Z,46.27
2022-10-03T03:32:08.384Z,46.43
2022-10-03T03:34:49.505Z,46.48
2022-10-03T03:37:35.338Z,46.53
2022-10-03T03:40:03.059Z,46.66
2022-10-03T03:42:54.439Z,46.35
2022-10-03T03:45:41.256Z,46.62
2022-10-03T03:48:25.575Z,46.21
2022-10-03T03:51:44.145Z,46.42
2022-10-03T03:54:16.371Z,46.21
2022-10-03T03:57:33.126Z,46.30
2022-10-03T04:00:08.137Z,46.32
2022-10-03T04:03:13.535Z,46.30
2022-10-03T04:05:41.357Z,46.02
2022-10-03T04:08:12.279Z,46.37
2022-10-03T04:11:06.955Z,46.18
2022-10-03T04:13:59.604Z,45.96
2022-10-03T04:17:43.069Z,45.75
2022-10-03T04:20:56.296Z,45.82
2022-10-03T04:23:29.954Z,45.86
2022-10-03T04:26:34.407Z,45.82
2022-10-03T04:29:12.044Z,45.89
2022-10-03T04:31:55.123Z,46.36
2022-10-03T04:34:51.888Z,46.22
2022-10-03T04:37:41.010Z,46.34
2022-10-03T04:40:50.186Z,46.59
2022-10-03T04:43:43.754Z,46.55
2022-10-03T04:46:27.951Z,46.50
2022-10-03T04:49:04.028Z,47.02
2022-10-03T04:52:22.213Z,46.78
2022-10-03T04:55:06.764Z,46.26
2022-10-03T04:57:52.539Z,46.37
2022-10-03T05:00:28.506Z,46.29
2022-10-03T05:03:13.412Z,46.36
2022-10-03T05:05:51.591Z,46.35
2022-10-03T05:08:37.238Z,46.58
2022-10-03T05:11:19.178Z,46.41
2022-10-03T05:14:11.418Z,46.77
2022-10-03T05:16:46.951Z,46.87
2022-10-03T05:19:36.426Z,46.54
2022-10-03T05:22:30.747Z,46.79
2022-10-03T05:25:13.912Z,46.78
2022-10-03T05:27:49.953Z,46.77
2022-10-03T05:30:34.953Z,46.81
2022-10-03T05:33:23.044Z,47.13
2022-10-03T05:36:08.889Z,46.82
2022-10-03T05:39:01.019Z,46.66
2022-10-03T05:41:35.690Z,46.63
2022-10-03T05:44:18.192Z,46.46
2022-10-03T05:46:59.690Z,46.43
2022-10-03T05:49:36.209Z,46.54
2022-10-03T05:52:12.823Z,46.37
2022-10-03T05:54:52.628Z,46.31
2022-10-03T05:57:59.119Z,46.55
2022-10-03T06:00:40.181Z,46.59
2022-10-03T06:03:47.428Z,46.48
2022-10-03T06:06:50.875Z,46.93
2022-10-03T06:09:39.832Z,46.66
2022-10-03T06:12:14.398Z,46.72
2022-10-03T06:15:03.052Z,46.79
2022-10-03T06:17:58.200Z,46.38
2022-10-03T06:21:02.973Z,46.17
2022-10-03T06:23:59.432Z,46.60
2022-10-03T06:26:55.103Z,46.34
2022-10-03T06:30:20.722Z,46.30
2022-10-03T06:33:09.765Z,46.66
2022-10-03T06:36:19.971Z,46.57
2022-10-03T06:39:13.718Z,46.75
2022-10-03T06:42:12.491Z,46.49
2022-10-03T06:45:10.096Z,46.36
2022-10-03T06:48:06.013Z,46.24
2022-10-03T06:51:00.132Z,46.38
2022-10-03T06:53:59.361Z,46.34
2022-10-03T06:56:31.959Z,46.38
2022-10-03T06:59:05.708Z,46.53
2022-10-03T07:01:58.206Z,46.36
2022-10-03T07:04:52.078Z,46.48
2022-10-03T07:07:52.561Z,45.84
2022-10-03T07:10:36.207Z,45.87
2022-10-03T07:13:27.004Z,47.02
2022-10-03T07:16:26.144Z,48.78
2022-10-03T07:19:14.219Z,47.86
2022-10-03T07:21:42.057Z,48.90
2022-10-03T07:24:40.592Z,49.33
2022-10-03T07:27:17.896Z,50.07
2022-10-03T07:29:58.094Z,50.59
2022-10-03T07:32:28.962Z,51.20
2022-10-03T07:35:21.381Z,51.13
2022-10-03T07:38:42.113Z,51.72
2022-10-03T07:41:31.794Z,51.74
2022-10-03T07:44:28.598Z,52.01
2022-10-03T07:47:35.998Z,52.90
2022-10-03T07:50:41.209Z,52.69
2022-10-03T07:53:11.939Z,52.92
2022-10-03T07:56:17.828Z,52.03
2022-10-03T07:58:48.529Z,51.97
2022-10-03T08:01:25.215Z,51.65
2022-10-03T08:03:59.075Z,51.69
2022-10-03T08:06:44.658Z,51.60
2022-10-03T08:09:37.014Z,51.52
2022-10-03T08:12:34.341Z,51.76
2022-10-03T08:15:30.057Z,51.66
2022-10-03T08:18:07.014Z,51.66
2022-10-03T08:20:52.929Z,51.75
2022-10-03T08:23:40.084Z,51.52
2022-10-03T08:26:27.985Z,51.97
2022-10-03T08:29:13.847Z,52.26
2022-10-03T08:32:32.486Z,52.38
2022-10-03T08:35:25.454Z,52.21
2022-10-03T08:38:28.186Z,52.39
2022-10-03T08:41:28.303Z,52.79
2022-10-03T08:44:33.428Z,52.74
2022-10-03T08:47:21.738Z,52.56
2022-10-03T08:49:52.515Z,52.62
2022-10-03T08:52:32.164Z,53.12
2022-10-03T08:55:31.861Z,52.89
2022-10-03T08:58:17.481Z,52.76
2022-10-03T09:01:19.219Z,52.74
2022-10-03T09:03:52.979Z,52.74
2022-10-03T09:10:07.736Z,53.09
2022-10-03T09:12:42.669Z,53.02
2022-10-03T09:15:48.003Z,53.02
2022-10-03T09:18:33.831Z,52.76
2022-10-03T09:22:00.625Z,53.34
2022-10-03T09:24:36.942Z,53.21
2022-10-03T09:27:14.914Z,52.87
2022-10-03T09:29:42.609Z,52.86
2022-10-03T09:32:47.540Z,53.05
2022-10-03T09:35:49.847Z,52.74
2022-10-03T09:38:41.831Z,53.01
2022-10-03T09:41:24.770Z,52.69
2022-10-03T09:43:57.225Z,52.90
2022-10-03T09:47:28.346Z,53.05
2022-10-03T09:50:01.991Z,52.85
2022-10-03T09:52:54.662Z,52.49
2022-10-03T09:55:23.184Z,52.66
2022-10-03T09:58:19.634Z,52.48
2022-10-03T10:01:12.322Z,52.55
2022-10-03T10:03:53.155Z,52.08
2022-10-03T10:06:49.080Z,52.18
2022-10-03T10:09:16.597Z,52.21
2022-10-03T10:12:15.718Z,51.88
2022-10-03T10:14:54.621Z,51.79
2022-10-03T10:17:34.297Z,51.89
2022-10-03T10:20:04.949Z,51.73
2022-10-03T10:23:05.444Z,51.57
2022-10-03T10:25:42.558Z,51.71
2022-10-03T10:28:37.888Z,51.69
2022-10-03T10:31:54.914Z,51.99
2022-10-03T10:34:44.174Z,51.89
2022-10-03T10:37:33.484Z,52.25
2022-10-03T10:40:27.588Z,52.18
2022-10-03T10:43:15.601Z,52.22
2022-10-03T10:46:08.095Z,52.31
2022-10-03T10:49:02.799Z,52.91
2022-10-03T10:51:49.997Z,52.75
2022-10-03T10:54:42.080Z,52.94
2022-10-03T10:57:24.649Z,53.24
2022-10-03T11:00:06.407Z,52.93
2022-10-03T11:02:43.863Z,52.86
2022-10-03T11:05:30.229Z,52.90
2022-10-03T11:08:25.467Z,52.77
2022-10-03T11:11:54.767Z,53.09
2022-10-03T11:14:22.286Z,52.97
2022-10-03T11:16:55.677Z,53.04
2022-10-03T11:19:51.362Z,53.33
2022-10-03T11:22:24.960Z,53.18
2022-10-03T11:25:41.155Z,53.70
2022-10-03T11:28:39.855Z,53.70
2022-10-03T11:31:33.222Z,53.93
2022-10-03T11:34:28.961Z,53.60
2022-10-03T11:37:31.281Z,53.99
2022-10-03T11:40:12.800Z,53.66
2022-10-03T11:42:56.165Z,53.48
2022-10-03T11:45:35.299Z,53.46
2022-10-03T11:48:19.692Z,53.61
2022-10-03T11:50:59.478Z,53.25
2022-10-03T11:53:43.704Z,53.14
2022-10-03T11:56:35.351Z,53.30
2022-10-03T11:59:20.457Z,53.40
2022-10-03T12:02:08.291Z,53.72
2022-10-03T12:05:00.202Z,55.23
2022-10-03T12:08:05.118Z,54.12
2022-10-03T12:11:14.130Z,53.75
2022-10-03T12:13:57.392Z,53.31
2022-10-03T12:16:32.085Z,53.64
2022-10-03T12:19:15.980Z,53.50
2022-10-03T12:22:11.856Z,53.55
2022-10-03T12:24:45.341Z,53.22
2022-10-03T12:27:30.287Z,53.30
2022-10-03T12:30:03.648Z,53.39
2022-10-03T12:32:48.973Z,53.34
2022-10-03T12:35:29.887Z,53.26
2022-10-03T12:38:48.839Z,52.89
2022-10-03T12:41:45.824Z,53.32
2022-10-03T12:44:29.823Z,53.09
2022-10-03T12:47:54.449Z,53.51
2022-10-03T12:51:00.805Z,52.92
2022-10-03T12:53:41.823Z,53.45
2022-10-03T12:56:15.378Z,53.25
2022-10-03T12:59:14.850Z,52.96
2022-10-03T13:01:54.709Z,53.12
2022-10-03T13:05:19.128Z,52.89
2022-10-03T13:07:56.755Z,52.53
2022-10-03T13:10:42.883Z,53.26
2022-10-03T13:13:32.450Z,52.70
2022-10-03T13:16:04.548Z,52.57
2022-10-03T13:18:44.396Z,52.54
2022-10-03T13:21:45.914Z,51.47
2022-10-03T13:24:32.582Z,51.67
2022-10-03T13:27:14.477Z,51.56
2022-10-03T13:29:50.074Z,51.20
2022-10-03T13:32:44.282Z,51.39
2022-10-03T13:35:54.925Z,50.51
2022-10-03T13:39:00.092Z,50.95
2022-10-03T13:41:35.017Z,50.87
2022-10-03T13:44:17.944Z,50.50
2022-10-03T13:46:57.800Z,50.38
2022-10-03T13:49:37.376Z,50.52
2022-10-03T13:52:18.849Z,50.75
2022-10-03T13:55:11.437Z,50.40
2022-10-03T13:57:57.811Z,50.94
2022-10-03T14:00:34.130Z,50.93
2022-10-03T14:03:01.908Z,50.79
2022-10-03T14:05:51.018Z,50.71
2022-10-03T14:08:28.311Z,50.78
2022-10-03T14:11:04.444Z,51.09
2022-10-03T14:13:44.187Z,50.81
2022-10-03T14:16:11.862Z,51.12
2022-10-03T14:19:07.819Z,51.19
2022-10-03T14:22:21.455Z,51.17
2022-10-03T14:25:11.880Z,50.64
2022-10-03T14:27:48.702Z,50.85
2022-10-03T14:30:23.816Z,50.78
2022-10-03T14:33:10.922Z,51.01
2022-10-03T14:36:03.714Z,50.97
2022-10-03T14:38:58.181Z,51.48
2022-10-03T14:42:00.115Z,51.35
2022-10-03T14:44:44.767Z,51.88
2022-10-03T14:47:15.954Z,51.95
2022-10-03T14:49:59.161Z,52.00
2022-10-03T14:52:55.321Z,52.17
2022-10-03T14:55:29.851Z,52.56
2022-10-03T14:58:20.308Z,53.07
2022-10-03T15:00:55.563Z,53.09
2022-10-03T15:03:30.664Z,53.08
2022-10-03T15:06:19.459Z,53.31
2022-10-03T15:08:57.273Z,53.40
2022-10-03T15:11:35.334Z,54.00
2022-10-03T15:14:06.651Z,53.57
2022-10-03T15:16:40.462Z,53.52
2022-10-03T15:19:19.025Z,53.91
2022-10-03T15:21:48.939Z,54.40
2022-10-03T15:24:25.460Z,54.19
2022-10-03T15:27:01.613Z,54.15
2022-10-03T15:29:30.752Z,54.06
2022-10-03T15:31:59.311Z,54.03
2022-10-03T15:34:39.987Z,54.24
2022-10-03T15:37:17.584Z,54.41
2022-10-03T15:39:48.191Z,54.87
2022-10-03T15:42:23.624Z,54.51
2022-10-03T15:45:06.846Z,54.92
2022-10-03T15:47:45.334Z,55.39
2022-10-03T15:50:34.214Z,55.28
2022-10-03T15:53:34.641Z,54.62
2022-10-03T15:56:09.532Z,54.67
2022-10-03T15:58:44.850Z,54.70
2022-10-03T16:01:21.025Z,54.83
2022-10-03T16:04:02.473Z,54.75
2022-10-03T16:06:51.605Z,54.78
2022-10-03T16:09:22.186Z,54.88
2022-10-03T16:12:05.047Z,54.77
2022-10-03T16:15:02.777Z,55.03
2022-10-03T16:18:01.479Z,54.80
2022-10-03T16:20:46.182Z,54.83
2022-10-03T16:23:24.816Z,54.72
2022-10-03T16:26:01.356Z,55.03
2022-10-03T16:28:36.546Z,54.97
2022-10-03T16:31:12.357Z,54.51
2022-10-03T16:33:58.037Z,54.99
2022-10-03T16:36:26.892Z,54.79
2022-10-03T16:39:00.712Z,54.62
2022-10-03T16:41:31.924Z,54.52
2022-10-03T16:44:05.520Z,54.42
2022-10-03T16:46:39.385Z,54.58
2022-10-03T16:49:50.119Z,53.87
2022-10-03T16:52:21.504Z,53.71
2022-10-03T16:54:57.838Z,54.18
2022-10-03T16:57:33.861Z,54.12
2022-10-03T17:00:08.038Z,53.90
2022-10-03T17:02:38.184Z,54.93
2022-10-03T17:05:13.426Z,54.90
2022-10-03T17:07:45.489Z,54.72
2022-10-03T17:10:35.382Z,54.38
2022-10-03T17:13:12.241Z,55.58
2022-10-03T17:15:46.185Z,55.15
2022-10-03T17:18:23.305Z,55.41
2022-10-03T17:21:07.526Z,54.83
2022-10-03T17:23:48.417Z,53.66
2022-10-03T17:26:33.464Z,53.77
2022-10-03T17:29:18.699Z,54.16
2022-10-03T17:32:03.566Z,54.29
2022-10-03T17:35:06.928Z,54.39
2022-10-03T17:38:37.211Z,54.86
2022-10-03T17:41:21.282Z,54.73
2022-10-03T17:44:19.756Z,54.53
2022-10-03T17:47:00.242Z,54.43
2022-10-03T17:49:29.014Z,54.63
2022-10-03T17:51:58.031Z,54.58
2022-10-03T17:54:39.305Z,54.04
2022-10-03T17:57:14.224Z,54.21
2022-10-03T17:59:57.199Z,54.34
2022-10-03T18:02:38.369Z,54.04
2022-10-03T18:05:22.506Z,53.93
2022-10-03T18:07:54.557Z,53.97
2022-10-03T18:10:27.545Z,53.89
2022-10-03T18:13:00.508Z,55.67
2022-10-03T18:15:47.383Z,55.18
2022-10-03T18:18:29.834Z,54.75
2022-10-03T18:21:11.686Z,55.09
2022-10-03T18:23:55.617Z,54.43
2022-10-03T18:26:32.400Z,54.29
2022-10-03T18:29:18.971Z,53.97
2022-10-03T18:31:53.827Z,54.06
2022-10-03T18:34:36.119Z,54.11
2022-10-03T18:37:33.192Z,54.19
2022-10-03T18:40:02.920Z,54.17
2022-10-03T18:42:31.302Z,53.88
2022-10-03T18:45:01.722Z,54.11
2022-10-03T18:47:40.523Z,54.05
2022-10-03T18:50:14.174Z,54.09
2022-10-03T18:52:55.401Z,53.92
2022-10-03T18:55:47.020Z,55.44
2022-10-03T18:58:46.474Z,54.77
2022-10-03T19:01:30.854Z,54.32
2022-10-03T19:04:04.995Z,54.56
2022-10-03T19:06:44.739Z,54.19
2022-10-03T19:09:23.327Z,54.29
2022-10-03T19:12:03.290Z,54.31
2022-10-03T19:15:19.315Z,54.02
2022-10-03T19:18:11.088Z,54.74
2022-10-03T19:20:43.738Z,54.33
2022-10-03T19:23:26.434Z,54.06
2022-10-03T19:25:57.675Z,54.54
2022-10-03T19:28:37.627Z,54.38
2022-10-03T19:31:21.380Z,54.42
2022-10-03T19:34:14.755Z,54.32
2022-10-03T19:36:42.768Z,54.14
2022-10-03T19:39:16.735Z,54.34
2022-10-03T19:42:00.549Z,54.40
2022-10-03T19:44:29.050Z,54.18
2022-10-03T19:47:01.461Z,53.98
2022-10-03T19:49:33.512Z,54.28
2022-10-03T19:52:14.402Z,54.08
2022-10-03T19:55:00.904Z,54.07
2022-10-03T19:57:34.268Z,54.42
2022-10-03T20:00:07.037Z,54.26
2022-10-03T20:02:39.849Z,54.33
2022-10-03T20:05:35.125Z,53.97
2022-10-03T20:08:30.704Z,54.13
2022-10-03T20:11:13.348Z,54.04
2022-10-03T20:13:48.204Z,54.78
2022-10-03T20:16:25.250Z,54.95
2022-10-03T20:18:57.027Z,54.31
2022-10-03T20:21:28.880Z,54.39
2022-10-03T20:23:58.261Z,54.19
2022-10-03T20:26:50.026Z,54.41
2022-10-03T20:29:25.223Z,53.92
2022-10-03T20:32:02.684Z,54.00
2022-10-03T20:34:34.325Z,54.09
2022-10-03T20:37:43.926Z,54.14
2022-10-03T20:40:35.212Z,54.11
2022-10-03T20:43:42.659Z,54.37
2022-10-03T20:46:28.547Z,54.16
2022-10-03T20:49:10.671Z,55.78
2022-10-03T20:52:00.198Z,54.96
2022-10-03T20:54:36.988Z,54.62
2022-10-03T20:57:04.873Z,54.42
2022-10-03T20:59:34.139Z,54.24
2022-10-03T21:02:07.411Z,53.91
2022-10-03T21:05:01.406Z,54.04
2022-10-03T21:07:52.373Z,54.01
2022-10-03T21:10:36.918Z,55.07
2022-10-03T21:13:15.472Z,55.44
2022-10-03T21:16:00.220Z,54.32
2022-10-03T21:18:40.229Z,54.45
2022-10-03T21:21:15.396Z,53.91
2022-10-03T21:24:11.213Z,54.34
2022-10-03T21:26:45.258Z,53.83
2022-10-03T21:29:36.417Z,53.91
2022-10-03T21:32:41.627Z,54.01
2022-10-03T21:35:29.738Z,53.76
2022-10-03T21:38:20.260Z,53.83
2022-10-03T21:41:04.699Z,53.58
2022-10-03T21:43:49.174Z,53.79
2022-10-03T21:46:40.651Z,53.25
2022-10-03T21:49:20.393Z,53.65
2022-10-03T21:51:48.312Z,53.64
2022-10-03T21:54:36.356Z,53.70
2022-10-03T21:57:06.898Z,53.73
2022-10-03T22:00:11.650Z,53.61
2022-10-03T22:03:19.321Z,53.07
2022-10-03T22:05:58.811Z,53.23
2022-10-03T22:08:32.134Z,53.39
2022-10-03T22:11:22.587Z,53.12
2022-10-03T22:13:59.426Z,53.52
2022-10-03T22:16:30.103Z,53.35
2022-10-03T22:19:09.742Z,53.15
2022-10-03T22:21:47.668Z,53.41
2022-10-03T22:24:41.743Z,53.19
2022-10-03T22:27:18.581Z,53.02
2022-10-03T22:30:21.599Z,53.11
2022-10-03T22:33:08.104Z,53.12
2022-10-03T22:35:59.782Z,52.91
2022-10-03T22:38:32.036Z,53.01
2022-10-03T22:41:05.023Z,53.34
2022-10-03T22:43:37.407Z,53.05
2022-10-03T22:46:07.338Z,52.88
2022-10-03T22:48:43.377Z,52.95
2022-10-03T22:51:13.969Z,53.07
2022-10-03T22:53:54.256Z,52.76
2022-10-03T22:56:39.382Z,53.15
2022-10-03T22:59:16.710Z,53.21
2022-10-03T23:01:47.523Z,52.70
2022-10-03T23:04:28.760Z,52.64
2022-10-03T23:07:24.445Z,52.81
2022-10-03T23:10:30.651Z,52.59
2022-10-03T23:13:21.675Z,52.63
2022-10-03T23:15:55.976Z,52.80
2022-10-03T23:18:39.126Z,52.72
2022-10-03T23:21:11.602Z,52.73
2022-10-03T23:24:12.058Z,52.55
2022-10-03T23:27:13.821Z,52.69
2022-10-03T23:29:41.635Z,52.58
2022-10-03T23:32:10.624Z,52.90
2022-10-03T23:34:38.114Z,52.58
2022-10-03T23:37:11.904Z,52.56
2022-10-03T23:39:41.522Z,52.84
2022-10-03T23:42:10.634Z,52.85
2022-10-03T23:44:56.317Z,52.77
2022-10-03T23:47:28.016Z,52.50
2022-10-03T23:49:56.941Z,52.51
2022-10-03T23:52:28.054Z,52.73
2022-10-03T23:55:00.566Z,52.97
2022-10-03T23:57:36.239Z,52.59
